Kingsville, Ohio
Current Conditions -  °F | °C
As of 4:53 AM on Thursday 23 Oct 2014 (Local Time) from KHZY Reporting Station
Scattered Clouds Scattered Clouds  
Wind Chill: 43°   Ceiling: Unl
Heat Index: 43°   Visibility: 10mi
Dew Point: 41°   Wind: 3mph
Humidity: 93%   Direction: 330°NNW
Pressure: 30.18"   Gusts: NA
Location:  41.89°N, 80.68°W
Report Text: KHZY 230853Z AUTO 33003KT 10SM SCT018 06/05 A3018 RMK AO2 SLP221 T00610050 56003
Loading
Personal Weather Stations






























Interactive Weather Map
Tropical Storm Tracking
New forecast layout! Learn more

10-Day Weather Forecast

Advertisements
Track Severe Weather on mobile